createdAt,value
2018-08-19T00:02:11.961Z,45.50
2018-08-19T00:07:07.058Z,45.80
2018-08-19T00:09:34.923Z,45.60
2018-08-19T00:12:02.777Z,45.90
2018-08-19T00:17:00.957Z,46.00
2018-08-19T00:21:56.452Z,46.00
2018-08-19T00:24:24.272Z,46.40
2018-08-19T00:34:26.435Z,46.10
2018-08-19T00:36:53.929Z,46.30
2018-08-19T00:39:21.536Z,46.10
2018-08-19T00:41:49.060Z,46.20
2018-08-19T00:44:16.639Z,46.40
2018-08-19T00:46:44.173Z,46.30
2018-08-19T00:49:11.704Z,46.20
2018-08-19T00:51:43.775Z,46.80
2018-08-19T00:54:12.242Z,47.00
2018-08-19T00:56:39.772Z,46.90
2018-08-19T00:59:08.932Z,47.00
2018-08-19T01:01:36.584Z,47.10
2018-08-19T01:04:06.932Z,47.40
2018-08-19T01:06:40.173Z,47.10
2018-08-19T01:11:36.060Z,46.90
2018-08-19T01:14:07.457Z,46.90
2018-08-19T01:19:02.720Z,46.90
2018-08-19T01:21:31.576Z,47.40
2018-08-19T01:24:00.220Z,47.00
2018-08-19T01:26:31.933Z,47.10
2018-08-19T01:31:27.010Z,47.90
2018-08-19T01:33:54.598Z,47.60
2018-08-19T01:36:23.275Z,47.30
2018-08-19T01:38:50.917Z,47.50
2018-08-19T01:41:18.356Z,47.70
2018-08-19T01:44:06.303Z,47.80
2018-08-19T01:49:07.145Z,48.70
2018-08-19T01:51:36.790Z,48.70
2018-08-19T01:54:10.090Z,48.60
2018-08-19T01:56:37.961Z,48.70
2018-08-19T01:59:05.874Z,48.10
2018-08-19T02:01:45.679Z,48.00
2018-08-19T02:04:13.494Z,47.90
2018-08-19T02:06:41.943Z,47.90
2018-08-19T02:11:39.250Z,48.00
2018-08-19T02:14:06.838Z,47.60
2018-08-19T02:16:34.395Z,47.80
2018-08-19T02:23:56.693Z,48.10
2018-08-19T02:26:28.589Z,47.70
2018-08-19T02:28:56.182Z,47.90
2018-08-19T02:31:23.976Z,47.50
2018-08-19T02:33:51.652Z,47.60
2018-08-19T02:36:19.139Z,48.00
2018-08-19T02:38:46.665Z,47.70
2018-08-19T02:41:14.270Z,47.30
2018-08-19T02:43:59.561Z,48.10
2018-08-19T02:46:27.431Z,47.60
2018-08-19T02:48:54.952Z,47.90
2018-08-19T02:51:22.511Z,47.90
2018-08-19T02:53:50.937Z,47.70
2018-08-19T02:58:47.010Z,47.60
2018-08-19T03:01:15.489Z,47.70
2018-08-19T03:06:10.700Z,47.50
2018-08-19T03:08:44.108Z,47.40
2018-08-19T03:11:12.503Z,47.40
2018-08-19T03:13:40.036Z,47.50
2018-08-19T03:18:34.932Z,47.50
2018-08-19T03:21:02.550Z,47.50
2018-08-19T03:23:29.983Z,47.40
2018-08-19T03:25:58.621Z,47.50
2018-08-19T03:28:26.137Z,46.80
2018-08-19T03:30:59.152Z,47.40
2018-08-19T03:33:26.662Z,47.50
2018-08-19T03:35:54.105Z,47.50
2018-08-19T03:38:24.778Z,47.90
2018-08-19T03:40:53.922Z,47.80
2018-08-19T03:43:21.473Z,47.60
2018-08-19T03:45:48.950Z,48.20
2018-08-19T03:48:16.500Z,48.20
2018-08-19T03:55:40.181Z,49.00
2018-08-19T03:58:08.971Z,49.00
2018-08-19T04:00:40.164Z,49.10
2018-08-19T04:03:20.616Z,49.20
2018-08-19T04:07:14.616Z,49.00
2018-08-19T04:12:11.743Z,49.30
2018-08-19T04:17:07.480Z,49.50
2018-08-19T04:19:35.016Z,49.70
2018-08-19T04:22:03.953Z,49.80
2018-08-19T04:24:32.012Z,49.70
2018-08-19T04:27:04.530Z,49.60
2018-08-19T04:32:00.362Z,50.10
2018-08-19T04:36:55.608Z,50.10
2018-08-19T04:39:23.088Z,50.00
2018-08-19T04:44:18.048Z,50.10
2018-08-19T04:46:45.618Z,50.00
2018-08-19T04:49:14.343Z,50.00
2018-08-19T04:51:41.844Z,50.20
2018-08-19T04:56:37.689Z,50.10
2018-08-19T04:59:05.753Z,50.00
2018-08-19T05:01:33.272Z,50.00
2018-08-19T05:04:00.780Z,50.10
2018-08-19T05:06:28.295Z,50.20
2018-08-19T05:08:57.453Z,50.20
2018-08-19T05:13:52.552Z,50.10
2018-08-19T05:16:20.052Z,50.20
2018-08-19T05:18:53.063Z,50.20
2018-08-19T05:21:21.205Z,50.60
2018-08-19T05:23:48.713Z,50.10
2018-08-19T05:26:16.237Z,50.60
2018-08-19T05:29:14.496Z,50.60
2018-08-19T05:31:48.225Z,50.20
2018-08-19T05:34:21.225Z,50.40
2018-08-19T05:36:50.251Z,51.00
2018-08-19T05:39:17.830Z,50.80
2018-08-19T05:44:22.999Z,51.40
2018-08-19T05:46:50.577Z,51.50
2018-08-19T05:49:18.376Z,51.70
2018-08-19T05:51:45.963Z,51.90
2018-08-19T05:56:40.994Z,51.50
2018-08-19T05:59:08.525Z,51.00
2018-08-19T06:01:36.193Z,50.30
2018-08-19T06:04:03.755Z,50.40
2018-08-19T06:06:31.382Z,50.50
2018-08-19T06:08:58.919Z,50.20
2018-08-19T06:11:26.540Z,50.50
2018-08-19T06:13:54.228Z,49.40
2018-08-19T06:16:21.813Z,49.70
2018-08-19T06:18:49.409Z,49.90
2018-08-19T06:21:16.975Z,49.10
2018-08-19T06:23:44.513Z,49.40
2018-08-19T06:26:14.558Z,49.30
2018-08-19T06:28:42.133Z,49.20
2018-08-19T06:31:09.821Z,48.20
2018-08-19T06:33:37.284Z,47.80
2018-08-19T06:36:04.843Z,48.00
2018-08-19T06:38:32.401Z,47.60
2018-08-19T06:43:27.385Z,46.90
2018-08-19T06:45:54.916Z,46.90
2018-08-19T06:48:22.527Z,46.40
2018-08-19T06:50:50.165Z,45.90
2018-08-19T06:53:23.191Z,47.30
2018-08-19T07:00:45.762Z,46.70
2018-08-19T07:03:13.366Z,47.60
2018-08-19T07:08:08.363Z,46.70
2018-08-19T07:10:40.294Z,47.10
2018-08-19T07:13:10.205Z,47.10
2018-08-19T07:15:38.930Z,46.40
2018-08-19T07:20:35.517Z,45.30
2018-08-19T07:23:03.118Z,45.80
2018-08-19T07:25:30.699Z,45.50
2018-08-19T07:27:58.366Z,44.70
2018-08-19T07:30:25.952Z,44.80
2018-08-19T07:32:53.610Z,44.30
2018-08-19T07:35:21.130Z,44.40
2018-08-19T07:40:17.120Z,42.80
2018-08-19T07:42:44.625Z,42.10
2018-08-19T07:45:12.276Z,42.40
2018-08-19T07:47:39.916Z,42.80
2018-08-19T07:50:08.383Z,42.10
2018-08-19T07:52:35.932Z,42.10
2018-08-19T07:55:03.977Z,42.20
2018-08-19T07:57:31.624Z,41.50
2018-08-19T08:02:30.472Z,40.10
2018-08-19T08:04:58.117Z,39.30
2018-08-19T08:07:28.596Z,39.90
2018-08-19T08:12:28.732Z,39.30
2018-08-19T08:14:56.397Z,38.40
2018-08-19T08:17:25.195Z,38.80
2018-08-19T08:20:04.271Z,38.40
2018-08-19T08:22:32.872Z,38.20
2018-08-19T08:25:00.604Z,38.30
2018-08-19T08:27:28.965Z,37.60
2018-08-19T08:29:56.532Z,37.60
2018-08-19T08:32:24.219Z,36.50
2018-08-19T08:34:52.072Z,35.90
2018-08-19T08:37:19.727Z,35.60
2018-08-19T08:39:50.170Z,35.40
2018-08-19T08:42:17.684Z,34.80
2018-08-19T08:44:45.327Z,34.80
2018-08-19T08:47:12.936Z,34.90
2018-08-19T08:49:47.001Z,35.10
2018-08-19T08:52:21.057Z,34.30
2018-08-19T08:54:51.526Z,33.80
2018-08-19T08:59:47.786Z,32.90
2018-08-19T09:02:15.327Z,32.50
2018-08-19T09:04:42.881Z,32.10
2018-08-19T09:09:40.001Z,32.00
2018-08-19T09:14:35.063Z,31.10
2018-08-19T09:17:02.660Z,31.20
2018-08-19T09:19:30.273Z,30.00
2018-08-19T09:21:57.910Z,30.20
2018-08-19T09:24:25.402Z,31.20
2018-08-19T09:26:53.197Z,29.10
2018-08-19T09:29:20.685Z,29.80
2018-08-19T09:31:48.256Z,29.60
2018-08-19T09:34:16.428Z,29.50
2018-08-19T09:36:44.021Z,29.60
2018-08-19T09:39:11.786Z,30.10
2018-08-19T09:41:39.305Z,29.40
2018-08-19T09:44:06.963Z,29.80
2018-08-19T09:46:34.515Z,29.50
2018-08-19T09:49:02.095Z,29.10
2018-08-19T09:51:29.656Z,28.80
2018-08-19T09:53:57.191Z,29.20
2018-08-19T09:56:30.305Z,27.90
2018-08-19T09:59:03.494Z,29.10
2018-08-19T10:01:36.867Z,28.90
2018-08-19T10:04:38.923Z,28.60
2018-08-19T10:09:39.166Z,28.40
2018-08-19T10:12:06.956Z,28.10
2018-08-19T10:14:34.481Z,28.60
2018-08-19T10:17:02.056Z,27.60
2018-08-19T10:19:29.654Z,27.70
2018-08-19T10:21:57.355Z,27.00
2018-08-19T10:24:28.555Z,28.30
2018-08-19T10:26:56.709Z,27.40
2018-08-19T10:29:24.442Z,27.00
2018-08-19T10:31:54.320Z,23.70
2018-08-19T10:34:25.021Z,23.50
2018-08-19T10:36:52.717Z,26.70
2018-08-19T10:39:20.240Z,23.80
2018-08-19T10:41:47.892Z,23.90
2018-08-19T10:44:15.551Z,25.80
2018-08-19T10:46:43.392Z,25.20
2018-08-19T10:49:11.336Z,21.00
2018-08-19T10:51:45.600Z,22.90
2018-08-19T10:54:13.951Z,23.40
2018-08-19T10:56:41.548Z,22.50
2018-08-19T10:59:10.471Z,24.50
2018-08-19T11:01:38.025Z,24.10
2018-08-19T11:04:05.606Z,22.10
2018-08-19T11:11:32.330Z,23.40
2018-08-19T11:13:59.928Z,22.00
2018-08-19T11:18:54.972Z,22.60
2018-08-19T11:21:29.016Z,23.40
2018-08-19T11:23:57.512Z,23.70
2018-08-19T11:26:26.131Z,23.50
2018-08-19T11:28:58.770Z,23.50
2018-08-19T11:31:31.935Z,23.70
2018-08-19T11:34:03.108Z,23.70
2018-08-19T11:36:36.829Z,24.00
2018-08-19T11:39:10.865Z,24.40
2018-08-19T11:41:38.462Z,23.40
2018-08-19T11:44:11.765Z,23.60
2018-08-19T11:46:39.343Z,24.70
2018-08-19T11:49:14.176Z,24.50
2018-08-19T11:51:50.644Z,24.40
2018-08-19T11:54:19.150Z,24.90
2018-08-19T11:56:54.377Z,25.30
2018-08-19T11:59:24.205Z,26.00
2018-08-19T12:04:19.284Z,25.50
2018-08-19T12:09:14.561Z,25.20
2018-08-19T12:11:42.065Z,24.70
2018-08-19T12:14:11.618Z,22.80
2018-08-19T12:16:45.838Z,22.90
2018-08-19T12:19:18.977Z,24.10
2018-08-19T12:21:54.722Z,24.20
2018-08-19T12:26:53.073Z,23.70
2018-08-19T12:29:21.247Z,23.20
2018-08-19T12:31:51.079Z,23.80
2018-08-19T12:34:18.621Z,22.50
2018-08-19T12:39:13.914Z,23.30
2018-08-19T12:41:45.748Z,21.90
2018-08-19T12:44:13.332Z,22.90
2018-08-19T12:46:51.158Z,22.70
2018-08-19T12:49:18.669Z,23.30
2018-08-19T12:51:46.220Z,23.30
2018-08-19T12:54:13.772Z,23.20
2018-08-19T12:56:41.250Z,23.50
2018-08-19T12:59:08.802Z,23.40
2018-08-19T13:01:36.333Z,22.90
2018-08-19T13:06:31.392Z,22.80
2018-08-19T13:08:58.886Z,23.30
2018-08-19T13:11:26.592Z,23.10
2018-08-19T13:16:22.438Z,23.00
2018-08-19T13:18:52.556Z,23.10
2018-08-19T13:21:21.217Z,23.40
2018-08-19T13:26:16.323Z,23.00
2018-08-19T13:28:48.421Z,22.60
2018-08-19T13:31:21.388Z,23.50
2018-08-19T13:36:16.390Z,23.20
2018-08-19T13:38:43.997Z,23.30
2018-08-19T13:41:11.710Z,23.50
2018-08-19T13:43:39.276Z,23.70
2018-08-19T13:46:06.907Z,23.80
2018-08-19T13:48:34.576Z,23.60
2018-08-19T13:51:02.338Z,24.30
2018-08-19T13:53:30.079Z,24.20
2018-08-19T13:55:57.810Z,24.10
2018-08-19T13:58:25.346Z,24.40
2018-08-19T14:00:52.890Z,24.60
2018-08-19T14:03:20.424Z,23.90
2018-08-19T14:08:15.520Z,23.90
2018-08-19T14:10:43.144Z,24.50
2018-08-19T14:13:10.727Z,24.00
2018-08-19T14:15:38.337Z,24.70
2018-08-19T14:18:05.974Z,24.30
2018-08-19T14:20:33.621Z,24.30
2018-08-19T14:23:01.239Z,25.10
2018-08-19T14:25:28.827Z,25.20
2018-08-19T14:27:56.918Z,24.50
2018-08-19T14:30:24.740Z,25.00
2018-08-19T14:32:52.221Z,24.90
2018-08-19T14:35:19.760Z,25.70
2018-08-19T14:37:47.264Z,25.60
2018-08-19T14:40:16.620Z,24.90
2018-08-19T14:42:44.322Z,25.50
2018-08-19T14:45:11.953Z,25.90
2018-08-19T14:47:40.262Z,26.20
2018-08-19T14:50:14.424Z,26.70
2018-08-19T14:52:42.105Z,26.80
2018-08-19T14:55:09.717Z,25.60
2018-08-19T14:57:37.345Z,26.60
2018-08-19T15:00:09.514Z,26.00
2018-08-19T15:02:37.813Z,27.20
2018-08-19T15:05:05.966Z,27.10
2018-08-19T15:07:33.625Z,27.00
2018-08-19T15:10:02.007Z,27.00
2018-08-19T15:14:59.767Z,27.00
2018-08-19T15:17:27.311Z,27.60
2018-08-19T15:22:23.511Z,27.50
2018-08-19T15:24:52.385Z,27.90
2018-08-19T15:27:20.070Z,27.50
2018-08-19T15:29:50.842Z,26.80
2018-08-19T15:32:20.712Z,26.80
2018-08-19T15:34:48.012Z,26.80
2018-08-19T15:37:15.617Z,27.60
2018-08-19T15:39:43.232Z,27.90
2018-08-19T15:42:11.060Z,27.90
2018-08-19T15:44:38.723Z,26.80
2018-08-19T15:47:06.496Z,27.80
2018-08-19T15:49:34.070Z,28.80
2018-08-19T15:52:01.600Z,27.80
2018-08-19T15:54:29.296Z,27.90
2018-08-19T15:56:58.812Z,27.10
2018-08-19T15:59:26.688Z,26.60
2018-08-19T16:01:54.260Z,26.60
2018-08-19T16:04:23.254Z,27.80
2018-08-19T16:06:52.025Z,26.60
2018-08-19T16:09:22.325Z,27.70
2018-08-19T16:11:51.511Z,27.20
2018-08-19T16:14:23.507Z,27.30
2018-08-19T16:16:51.545Z,27.30
2018-08-19T16:19:19.396Z,27.30
2018-08-19T16:24:15.831Z,28.10
2018-08-19T16:26:43.556Z,26.60
2018-08-19T16:29:11.116Z,27.90
2018-08-19T16:31:38.750Z,26.20
2018-08-19T16:36:33.889Z,28.50
2018-08-19T16:39:01.568Z,28.70
2018-08-19T16:43:57.914Z,28.50
2018-08-19T17:03:34.415Z,29.00
2018-08-19T17:06:02.316Z,29.40
2018-08-19T17:08:29.995Z,29.80
2018-08-19T17:10:57.601Z,29.70
2018-08-19T17:13:25.231Z,30.00
2018-08-19T17:15:52.804Z,30.10
2018-08-19T17:18:20.443Z,30.30
2018-08-19T17:20:48.869Z,32.10
2018-08-19T17:23:18.876Z,31.10
2018-08-19T17:25:46.853Z,32.00
2018-08-19T17:28:19.041Z,32.50
2018-08-19T17:30:49.848Z,32.80
2018-08-19T17:33:21.723Z,33.30
2018-08-19T17:40:47.897Z,33.80
2018-08-19T17:48:13.564Z,33.80
2018-08-19T17:50:42.353Z,34.60
2018-08-19T17:53:09.926Z,35.00
2018-08-19T17:55:37.531Z,35.20
2018-08-19T17:58:05.660Z,35.10
2018-08-19T18:00:33.315Z,35.20
2018-08-19T18:03:00.868Z,35.30
2018-08-19T18:05:28.506Z,35.40
2018-08-19T18:07:56.207Z,36.00
2018-08-19T18:10:23.817Z,35.70
2018-08-19T18:12:51.951Z,36.30
2018-08-19T18:15:19.723Z,35.70
2018-08-19T18:20:26.962Z,36.30
2018-08-19T18:22:55.769Z,36.30
2018-08-19T18:25:23.749Z,36.40
2018-08-19T18:27:51.396Z,36.40
2018-08-19T18:30:21.864Z,36.20
2018-08-19T18:32:50.062Z,36.20
2018-08-19T18:35:17.981Z,36.50
2018-08-19T18:37:45.776Z,36.40
2018-08-19T18:40:44.487Z,36.60
2018-08-19T18:43:12.113Z,36.60
2018-08-19T18:45:39.770Z,36.90
2018-08-19T18:48:07.441Z,36.80
2018-08-19T18:50:35.032Z,37.80
2018-08-19T18:53:02.619Z,37.70
2018-08-19T18:55:30.160Z,37.70
2018-08-19T18:57:57.787Z,37.90
2018-08-19T19:00:26.252Z,37.80
2018-08-19T19:05:33.050Z,38.50
2018-08-19T19:08:06.749Z,38.70
2018-08-19T19:10:34.745Z,38.80
2018-08-19T19:13:02.675Z,38.60
2018-08-19T19:15:33.441Z,38.20
2018-08-19T19:20:28.577Z,38.20
2018-08-19T19:23:01.629Z,38.60
2018-08-19T19:25:37.878Z,38.90
2018-08-19T19:28:06.073Z,38.60
2018-08-19T19:30:33.729Z,39.00
2018-08-19T19:33:08.681Z,39.30
2018-08-19T19:35:36.597Z,39.40
2018-08-19T19:38:04.891Z,39.80
2018-08-19T19:40:32.569Z,39.60
2018-08-19T19:43:00.633Z,39.70
2018-08-19T19:45:28.404Z,40.00
2018-08-19T19:47:55.992Z,39.80
2018-08-19T19:50:23.585Z,40.30
2018-08-19T19:52:55.696Z,41.00
2018-08-19T19:55:23.503Z,40.30
2018-08-19T19:57:51.820Z,40.50
2018-08-19T20:00:21.084Z,41.00
2018-08-19T20:02:49.450Z,41.30
2018-08-19T20:05:23.446Z,41.30
2018-08-19T20:07:53.453Z,41.30
2018-08-19T20:10:27.745Z,42.00
2018-08-19T20:12:55.370Z,41.70
2018-08-19T20:15:23.039Z,41.30
2018-08-19T20:17:50.672Z,41.60
2018-08-19T20:20:18.312Z,42.00
2018-08-19T20:22:45.863Z,42.40
2018-08-19T20:25:13.514Z,42.50
2018-08-19T20:27:41.109Z,42.80
2018-08-19T20:32:36.201Z,42.60
2018-08-19T20:35:04.133Z,42.70
2018-08-19T20:37:34.161Z,42.60
2018-08-19T20:40:04.265Z,42.60
2018-08-19T20:44:59.344Z,42.80
2018-08-19T20:47:26.898Z,42.60
2018-08-19T20:49:54.449Z,43.00
2018-08-19T20:52:46.712Z,42.90
2018-08-19T20:55:14.511Z,43.00
2018-08-19T20:57:42.178Z,43.10
2018-08-19T21:00:10.020Z,43.40
2018-08-19T21:02:37.631Z,42.90
2018-08-19T21:05:05.557Z,43.00
2018-08-19T21:12:28.414Z,43.00
2018-08-19T21:14:55.998Z,42.90
2018-08-19T21:17:23.529Z,43.00
2018-08-19T21:19:51.424Z,43.50
2018-08-19T21:22:18.956Z,43.60
2018-08-19T21:24:46.485Z,43.60
2018-08-19T21:27:14.042Z,43.60
2018-08-19T21:29:41.601Z,43.90
2018-08-19T21:32:09.110Z,43.80
2018-08-19T21:37:04.123Z,43.90
2018-08-19T21:39:31.745Z,43.70
2018-08-19T21:41:59.326Z,44.00
2018-08-19T21:44:26.811Z,44.10
2018-08-19T21:49:22.768Z,44.20
2018-08-19T21:56:45.242Z,44.90
2018-08-19T21:59:18.325Z,44.90
2018-08-19T22:01:58.625Z,44.80
2018-08-19T22:04:26.628Z,44.90
2018-08-19T22:06:54.361Z,45.60
2018-08-19T22:09:35.959Z,45.40
2018-08-19T22:12:04.799Z,45.40
2018-08-19T22:14:33.539Z,45.10
2018-08-19T22:17:08.838Z,45.30
2018-08-19T22:19:36.785Z,45.80
2018-08-19T22:22:04.462Z,45.50
2018-08-19T22:24:32.169Z,45.80
2018-08-19T22:27:05.254Z,45.40
2018-08-19T22:29:32.751Z,45.40
2018-08-19T22:32:00.334Z,45.40
2018-08-19T22:34:27.940Z,45.60
2018-08-19T22:36:55.493Z,45.60
2018-08-19T22:39:23.155Z,45.60
2018-08-19T22:41:51.446Z,45.60
2018-08-19T22:44:19.052Z,45.50
2018-08-19T22:46:46.586Z,45.60
2018-08-19T22:49:14.958Z,45.90
2018-08-19T22:51:42.712Z,46.20
2018-08-19T22:54:10.325Z,46.10
2018-08-19T22:56:37.965Z,46.20
2018-08-19T22:59:05.551Z,46.60
2018-08-19T23:01:38.816Z,46.50
2018-08-19T23:04:06.364Z,46.50
2018-08-19T23:06:34.063Z,46.30
2018-08-19T23:11:35.767Z,46.70
2018-08-19T23:14:15.122Z,46.50
2018-08-19T23:16:42.785Z,46.50
2018-08-19T23:19:10.332Z,46.90
2018-08-19T23:21:38.041Z,46.90
2018-08-19T23:24:05.723Z,47.10
2018-08-19T23:26:33.365Z,47.10
2018-08-19T23:29:00.979Z,47.40
2018-08-19T23:31:28.551Z,47.70
2018-08-19T23:33:56.221Z,47.70
2018-08-19T23:36:23.961Z,48.00
2018-08-19T23:38:51.483Z,48.00
2018-08-19T23:41:19.033Z,47.80
2018-08-19T23:43:46.542Z,48.40
2018-08-19T23:46:14.093Z,48.50
2018-08-19T23:48:41.737Z,48.50
2018-08-19T23:51:11.328Z,48.40
2018-08-19T23:53:38.910Z,48.40
2018-08-19T23:56:06.512Z,48.40
2018-08-19T23:58:34.181Z,48.40
